Map Display - EGPF to LEGE
(last flight recorded 20-05-2019, 10:47 - Adrian Smith)

Aircraft Weights    Units : Maximums
Passengers :   124  
Cargo : kg 3,800 kg
Suggested Fuel Load : kg 15,682 kg
 
     
 
Dry Operating : 27,448 kg    
Total Payload : 5,673 kg 15,643 kg
 
Take Off : 45,138 kg 58,105 kg
 
Expected Landing : 37,538 kg 46,720 kg

Andrew Siddall,  B73Q ,  G-BFVA,  In Hangar.

Route Distance Previous
Flights
Average
Duration
Average
Fuel Flow
Average
Fuel Use
EGPF - Glasgow
LEGE - Girona, Spain
885 nm 2 02:24 3,155 kg/h 7,600 kg

Current weather :-
2019/05/20 06:59
TAF
AMD EGPF 200558Z 2006/2106 27005KT 9999 BKN012
BECMG 2006/2009 SCT020
2019/05/20 06:27
TAF LEGE 200500Z 2006/2106 VRB03KT 9999 SCT025 TX22/2013Z TN08/2006Z
TEMPO 2006/2007 2000 BR BKN008 PROB40
TEMPO 2006/2007 0500 BCFG VV002
BECMG 2010/2012 17007KT
BECMG 2020/2022 34004KT

Back to Virtual Airline